createdAt,value
2023-05-24T00:00:47.865Z,41.58
2023-05-24T00:03:19.040Z,43.83
2023-05-24T00:05:47.939Z,39.03
2023-05-24T00:08:16.488Z,38.22
2023-05-24T00:10:44.763Z,36.50
2023-05-24T00:13:13.279Z,33.58
2023-05-24T00:15:41.407Z,37.95
2023-05-24T00:18:11.191Z,47.03
2023-05-24T00:20:39.672Z,38.40
2023-05-24T00:23:08.120Z,45.42
2023-05-24T00:25:36.356Z,39.97
2023-05-24T00:28:04.854Z,40.25
2023-05-24T00:30:32.932Z,33.10
2023-05-24T00:33:01.435Z,34.67
2023-05-24T00:35:34.168Z,38.58
2023-05-24T00:38:02.474Z,29.73
2023-05-24T00:40:30.546Z,37.45
2023-05-24T00:42:58.908Z,35.38
2023-05-24T00:45:26.992Z,36.63
2023-05-24T00:47:55.630Z,40.78
2023-05-24T00:50:24.211Z,29.08
2023-05-24T00:52:53.976Z,38.13
2023-05-24T00:55:22.246Z,27.77
2023-05-24T00:57:52.328Z,41.55
2023-05-24T01:00:20.918Z,35.58
2023-05-24T01:02:52.113Z,31.63
2023-05-24T01:05:20.667Z,40.22
2023-05-24T01:07:58.348Z,42.20
2023-05-24T01:10:36.189Z,37.45
2023-05-24T01:13:22.668Z,38.10
2023-05-24T01:15:56.752Z,37.95
2023-05-24T01:21:14.831Z,36.63
2023-05-24T01:23:53.486Z,39.87
2023-05-24T01:26:32.957Z,41.20
2023-05-24T01:29:06.083Z,36.55
2023-05-24T01:31:36.029Z,44.22
2023-05-24T01:34:04.686Z,48.67
2023-05-24T01:36:32.766Z,38.08
2023-05-24T01:39:02.885Z,37.92
2023-05-24T01:41:40.650Z,34.88
2023-05-24T01:44:18.804Z,35.78
2023-05-24T01:46:51.072Z,43.03
2023-05-24T01:49:24.070Z,49.33
2023-05-24T01:51:58.800Z,34.47
2023-05-24T01:54:29.652Z,37.28
2023-05-24T01:56:59.759Z,35.80
2023-05-24T01:59:31.285Z,38.65
2023-05-24T02:01:59.547Z,34.95
2023-05-24T02:04:27.874Z,30.40
2023-05-24T02:06:55.988Z,30.38
2023-05-24T02:09:24.211Z,29.75
2023-05-24T02:11:52.645Z,37.30
2023-05-24T02:14:20.861Z,35.17
2023-05-24T02:16:51.641Z,40.35
2023-05-24T02:19:21.597Z,36.22
2023-05-24T02:21:49.802Z,35.25
2023-05-24T02:24:18.702Z,32.00
2023-05-24T02:26:47.264Z,33.38
2023-05-24T02:29:16.117Z,32.70
2023-05-24T02:31:44.488Z,32.20
2023-05-24T02:34:14.003Z,37.50
2023-05-24T02:36:42.651Z,30.80
2023-05-24T02:39:10.900Z,41.97
2023-05-24T02:41:39.264Z,33.58
2023-05-24T02:44:07.399Z,33.63
2023-05-24T02:46:35.887Z,32.08
2023-05-24T02:49:05.112Z,34.83
2023-05-24T02:51:34.726Z,35.45
2023-05-24T02:54:03.098Z,26.48
2023-05-24T02:56:31.609Z,29.30
2023-05-24T02:58:59.929Z,34.22
2023-05-24T03:01:30.353Z,37.83
2023-05-24T03:04:00.357Z,43.78
2023-05-24T03:06:28.556Z,35.38
2023-05-24T03:08:59.293Z,38.22
2023-05-24T03:11:28.310Z,41.80
2023-05-24T03:13:56.596Z,29.70
2023-05-24T03:16:25.517Z,32.78
2023-05-24T03:18:55.358Z,33.03
2023-05-24T03:21:25.236Z,37.28
2023-05-24T03:23:53.439Z,33.85
2023-05-24T03:26:23.668Z,29.50
2023-05-24T03:28:52.360Z,28.05
2023-05-24T03:31:24.225Z,38.38
2023-05-24T03:33:53.767Z,39.00
2023-05-24T03:36:22.367Z,34.65
2023-05-24T03:38:50.593Z,28.00
2023-05-24T03:41:20.094Z,35.45
2023-05-24T03:43:49.598Z,27.10
2023-05-24T03:46:19.494Z,35.22
2023-05-24T03:48:49.458Z,34.75
2023-05-24T03:51:17.893Z,39.97
2023-05-24T03:53:46.237Z,30.55
2023-05-24T03:56:14.586Z,28.50
2023-05-24T03:58:43.207Z,29.48
2023-05-24T04:01:25.460Z,27.63
2023-05-24T04:04:01.609Z,22.88
2023-05-24T04:06:30.333Z,34.88
2023-05-24T04:09:00.785Z,30.52
2023-05-24T04:11:29.140Z,28.48
2023-05-24T04:14:00.739Z,26.10
2023-05-24T04:16:34.158Z,27.17
2023-05-24T04:19:05.885Z,20.67
2023-05-24T04:21:34.380Z,28.05
2023-05-24T04:24:03.417Z,27.08
2023-05-24T04:26:33.856Z,28.92
2023-05-24T04:29:03.788Z,27.35
2023-05-24T04:31:34.215Z,37.72
2023-05-24T04:34:02.968Z,27.48
2023-05-24T04:36:33.970Z,29.98
2023-05-24T04:39:04.340Z,28.33
2023-05-24T04:41:33.237Z,31.30
2023-05-24T04:44:01.617Z,24.83
2023-05-24T04:46:30.307Z,22.38
2023-05-24T04:49:02.252Z,33.08
2023-05-24T04:51:30.415Z,24.00
2023-05-24T04:53:58.750Z,24.95
2023-05-24T04:56:26.982Z,29.27
2023-05-24T04:58:55.340Z,26.83
2023-05-24T05:01:23.510Z,26.60
2023-05-24T05:03:52.007Z,28.65
2023-05-24T05:06:22.017Z,30.35
2023-05-24T05:08:50.359Z,30.35
2023-05-24T05:11:19.113Z,27.05
2023-05-24T05:13:47.781Z,26.90
2023-05-24T05:16:16.414Z,30.65
2023-05-24T05:18:44.781Z,22.70
2023-05-24T05:21:12.924Z,26.48
2023-05-24T05:23:42.521Z,25.75
2023-05-24T05:26:11.523Z,26.73
2023-05-24T05:28:39.882Z,26.15
2023-05-24T05:31:08.027Z,31.52
2023-05-24T05:33:36.268Z,23.75
2023-05-24T05:36:04.624Z,27.45
2023-05-24T05:38:32.997Z,21.83
2023-05-24T05:41:02.393Z,25.33
2023-05-24T05:43:30.741Z,27.52
2023-05-24T05:46:00.622Z,27.48
2023-05-24T05:48:28.890Z,29.92
2023-05-24T05:50:59.707Z,26.00
2023-05-24T05:53:28.081Z,26.63
2023-05-24T05:55:57.376Z,34.70
2023-05-24T05:58:26.948Z,21.33
2023-05-24T06:00:55.088Z,20.60
2023-05-24T06:03:23.492Z,25.30
2023-05-24T06:05:51.875Z,26.05
2023-05-24T06:08:19.950Z,19.17
2023-05-24T06:10:48.811Z,21.17
2023-05-24T06:13:17.839Z,32.20
2023-05-24T06:15:47.506Z,28.00
2023-05-24T06:18:15.765Z,23.65
2023-05-24T06:20:44.869Z,29.20
2023-05-24T06:23:13.396Z,25.17
2023-05-24T06:25:43.827Z,20.83
2023-05-24T06:28:12.139Z,31.90
2023-05-24T06:30:40.770Z,29.33
2023-05-24T06:33:10.595Z,28.25
2023-05-24T06:35:39.021Z,27.77
2023-05-24T06:38:07.117Z,23.92
2023-05-24T06:40:35.488Z,29.83
2023-05-24T06:43:03.660Z,29.25
2023-05-24T06:45:33.520Z,26.50
2023-05-24T06:48:01.728Z,30.85
2023-05-24T06:50:31.438Z,21.08
2023-05-24T06:52:59.589Z,27.27
2023-05-24T06:55:27.954Z,34.92
2023-05-24T06:57:56.141Z,25.80
2023-05-24T07:00:24.629Z,30.75
2023-05-24T07:02:52.840Z,23.55
2023-05-24T07:05:22.372Z,25.55
2023-05-24T07:07:51.854Z,23.80
2023-05-24T07:10:20.264Z,23.70
2023-05-24T07:12:48.321Z,34.40
2023-05-24T07:15:16.732Z,20.42
2023-05-24T07:17:44.903Z,26.45
2023-05-24T07:20:14.220Z,28.35
2023-05-24T07:22:44.719Z,31.73
2023-05-24T07:25:14.653Z,24.98
2023-05-24T07:27:42.728Z,22.92
2023-05-24T07:30:23.593Z,24.73
2023-05-24T07:33:00.140Z,30.67
2023-05-24T07:35:29.624Z,19.77
2023-05-24T07:37:57.931Z,26.73
2023-05-24T07:40:27.478Z,28.63
2023-05-24T07:42:56.145Z,30.08
2023-05-24T07:45:24.399Z,21.65
2023-05-24T07:47:54.468Z,41.13
2023-05-24T07:50:25.179Z,27.08
2023-05-24T07:52:53.338Z,30.80
2023-05-24T07:55:21.726Z,21.23
2023-05-24T07:57:51.412Z,26.02
2023-05-24T08:00:21.037Z,21.80
2023-05-24T08:02:49.190Z,25.13
2023-05-24T08:05:18.356Z,19.45
2023-05-24T08:07:46.579Z,23.33
2023-05-24T08:10:14.947Z,25.27
2023-05-24T08:12:43.209Z,31.50
2023-05-24T08:15:13.032Z,29.80
2023-05-24T08:17:41.219Z,26.65
2023-05-24T08:20:13.853Z,29.65
2023-05-24T08:22:42.360Z,26.33
2023-05-24T08:25:11.966Z,23.05
2023-05-24T08:27:40.112Z,22.30
2023-05-24T08:30:09.404Z,20.33
2023-05-24T08:32:39.572Z,25.50
2023-05-24T08:35:20.111Z,24.80
2023-05-24T08:37:49.536Z,29.73
2023-05-24T08:40:18.232Z,33.97
2023-05-24T08:42:46.976Z,20.27
2023-05-24T08:45:16.402Z,28.83
2023-05-24T08:47:48.074Z,23.55
2023-05-24T08:50:16.641Z,15.50
2023-05-24T08:52:46.062Z,19.17
2023-05-24T08:55:14.781Z,29.25
2023-05-24T08:57:43.486Z,27.25
2023-05-24T09:00:13.218Z,15.98
2023-05-24T09:02:43.426Z,26.48
2023-05-24T09:05:16.981Z,37.50
2023-05-24T09:07:47.029Z,23.88
2023-05-24T09:10:18.899Z,28.60
2023-05-24T09:12:51.216Z,26.27
2023-05-24T09:15:39.713Z,23.20
2023-05-24T09:18:09.036Z,26.90
2023-05-24T09:20:38.575Z,27.00
2023-05-24T09:23:08.820Z,21.92
2023-05-24T09:25:37.573Z,28.30
2023-05-24T09:28:08.545Z,18.02
2023-05-24T09:30:37.730Z,20.48
2023-05-24T09:33:08.828Z,23.85
2023-05-24T09:35:38.852Z,14.90
2023-05-24T09:38:08.036Z,16.27
2023-05-24T09:40:36.428Z,26.45
2023-05-24T09:43:06.074Z,18.83
2023-05-24T09:45:40.295Z,29.50
2023-05-24T09:50:41.693Z,14.95
2023-05-24T09:53:10.041Z,13.20
2023-05-24T09:55:38.734Z,15.65
2023-05-24T09:58:08.997Z,25.75
2023-05-24T10:00:41.329Z,16.40
2023-05-24T10:03:12.066Z,16.65
2023-05-24T10:05:44.753Z,21.00
2023-05-24T10:08:14.345Z,15.75
2023-05-24T10:10:43.901Z,19.75
2023-05-24T10:13:12.760Z,22.70
2023-05-24T10:15:41.097Z,14.90
2023-05-24T10:18:12.288Z,20.35
2023-05-24T10:20:44.230Z,22.40
2023-05-24T10:23:18.203Z,15.25
2023-05-24T10:25:51.131Z,17.47
2023-05-24T10:28:21.497Z,16.13
2023-05-24T10:31:01.630Z,13.20
2023-05-24T10:33:31.983Z,22.00
2023-05-24T10:36:02.074Z,20.95
2023-05-24T10:38:31.415Z,14.80
2023-05-24T10:40:59.841Z,20.25
2023-05-24T10:43:28.123Z,20.88
2023-05-24T10:45:56.757Z,18.58
2023-05-24T10:48:41.513Z,21.85
2023-05-24T10:51:38.614Z,18.08
2023-05-24T10:54:15.819Z,16.90
2023-05-24T10:56:47.007Z,18.35
2023-05-24T10:59:29.020Z,14.23
2023-05-24T11:01:59.383Z,21.25
2023-05-24T11:04:29.421Z,14.75
2023-05-24T11:07:03.283Z,19.88
2023-05-24T11:09:31.798Z,15.65
2023-05-24T11:12:07.536Z,14.90
2023-05-24T11:14:39.376Z,19.88
2023-05-24T11:17:08.906Z,13.23
2023-05-24T11:19:38.565Z,13.82
2023-05-24T11:22:09.852Z,19.83
2023-05-24T11:24:38.237Z,22.98
2023-05-24T11:27:07.114Z,15.55
2023-05-24T11:29:42.645Z,18.17
2023-05-24T11:32:11.137Z,10.70
2023-05-24T11:34:40.029Z,17.23
2023-05-24T11:37:09.568Z,15.85
2023-05-24T11:39:38.614Z,17.90
2023-05-24T11:42:08.041Z,17.23
2023-05-24T11:44:39.120Z,21.52
2023-05-24T11:47:09.291Z,18.15
2023-05-24T11:49:37.437Z,11.27
2023-05-24T11:52:06.621Z,17.92
2023-05-24T11:54:37.327Z,15.55
2023-05-24T11:57:09.580Z,14.55
2023-05-24T11:59:38.768Z,20.30
2023-05-24T12:02:08.959Z,19.85
2023-05-24T12:04:37.398Z,12.93
2023-05-24T12:07:05.734Z,16.45
2023-05-24T12:09:35.529Z,15.63
2023-05-24T12:12:03.609Z,22.90
2023-05-24T12:14:34.688Z,19.15
2023-05-24T12:17:02.992Z,14.48
2023-05-24T12:19:35.147Z,16.42
2023-05-24T12:22:06.255Z,23.02
2023-05-24T12:24:36.777Z,14.77
2023-05-24T12:27:07.620Z,15.30
2023-05-24T12:29:37.200Z,13.20
2023-05-24T12:32:06.463Z,25.08
2023-05-24T12:34:34.587Z,22.02
2023-05-24T12:37:04.066Z,17.13
2023-05-24T12:39:34.194Z,21.92
2023-05-24T12:42:06.085Z,17.83
2023-05-24T12:44:36.973Z,15.60
2023-05-24T12:47:06.880Z,18.27
2023-05-24T12:49:35.522Z,13.38
2023-05-24T12:52:03.894Z,15.85
2023-05-24T12:54:32.621Z,12.93
2023-05-24T12:57:02.588Z,15.98
2023-05-24T12:59:32.597Z,11.57
2023-05-24T13:02:00.882Z,15.65
2023-05-24T13:04:31.603Z,21.50
2023-05-24T13:07:00.282Z,18.08
2023-05-24T13:09:28.622Z,22.60
2023-05-24T13:11:56.962Z,14.63
2023-05-24T13:14:25.373Z,15.85
2023-05-24T13:16:54.903Z,26.08
2023-05-24T13:19:25.298Z,13.43
2023-05-24T13:21:54.237Z,15.32
2023-05-24T13:24:23.192Z,18.73
2023-05-24T13:26:54.479Z,16.67
2023-05-24T13:31:56.558Z,19.85
2023-05-24T13:34:25.786Z,19.98
2023-05-24T13:36:54.489Z,17.30
2023-05-24T13:39:23.075Z,19.38
2023-05-24T13:41:51.482Z,19.10
2023-05-24T13:44:19.632Z,15.75
2023-05-24T13:46:48.098Z,14.40
2023-05-24T13:49:17.516Z,20.30
2023-05-24T13:51:45.710Z,17.05
2023-05-24T13:54:14.015Z,16.38
2023-05-24T13:56:44.447Z,26.73
2023-05-24T13:59:13.126Z,26.95
2023-05-24T14:01:41.847Z,20.27
2023-05-24T14:04:10.207Z,13.85
2023-05-24T14:06:39.998Z,16.58
2023-05-24T14:09:08.505Z,19.35
2023-05-24T14:11:37.401Z,18.02
2023-05-24T14:16:37.098Z,17.83
2023-05-24T14:19:05.792Z,18.40
2023-05-24T14:21:33.933Z,13.82
2023-05-24T14:24:04.481Z,22.52
2023-05-24T14:26:32.751Z,16.13
2023-05-24T14:29:01.748Z,16.52
2023-05-24T14:31:29.876Z,22.77
2023-05-24T14:33:58.767Z,18.38
2023-05-24T14:36:27.003Z,27.35
2023-05-24T14:38:55.220Z,18.27
2023-05-24T14:41:24.910Z,16.63
2023-05-24T14:43:53.136Z,21.17
2023-05-24T14:46:21.248Z,16.10
2023-05-24T14:48:49.315Z,16.08
2023-05-24T14:51:17.398Z,19.83
2023-05-24T14:53:46.307Z,15.93
2023-05-24T14:56:14.780Z,15.63
2023-05-24T14:58:44.548Z,13.55
2023-05-24T15:01:13.046Z,10.98
2023-05-24T15:03:41.484Z,11.40
2023-05-24T15:06:09.746Z,8.85
2023-05-24T15:08:37.967Z,14.65
2023-05-24T15:11:06.572Z,12.57
2023-05-24T15:13:35.166Z,13.57
2023-05-24T15:16:04.648Z,15.02
2023-05-24T15:18:33.013Z,12.45
2023-05-24T15:21:01.191Z,10.23
2023-05-24T15:23:29.422Z,9.32
2023-05-24T15:25:57.771Z,13.38
2023-05-24T15:28:26.851Z,7.03
2023-05-24T15:30:56.966Z,16.77
2023-05-24T15:33:27.791Z,10.65
2023-05-24T15:35:56.728Z,10.50
2023-05-24T15:38:24.803Z,16.77
2023-05-24T15:40:53.266Z,12.02
2023-05-24T15:43:21.679Z,16.88
2023-05-24T15:45:50.007Z,11.13
2023-05-24T15:48:18.225Z,13.63
2023-05-24T15:51:25.652Z,13.77
2023-05-24T15:53:35.883Z,11.73
2023-05-24T15:56:07.237Z,11.88
2023-05-24T15:58:35.457Z,10.75
2023-05-24T16:01:03.575Z,10.25
2023-05-24T16:03:32.124Z,10.23
2023-05-24T16:06:01.691Z,11.13
2023-05-24T16:08:30.007Z,13.15
2023-05-24T16:10:58.459Z,16.30
2023-05-24T16:13:26.901Z,13.70
2023-05-24T16:15:54.989Z,14.27
2023-05-24T16:18:23.811Z,11.32
2023-05-24T16:20:52.644Z,13.52
2023-05-24T16:23:23.730Z,22.17
2023-05-24T16:25:52.049Z,19.42
2023-05-24T16:28:23.977Z,15.60
2023-05-24T16:30:55.731Z,17.10
2023-05-24T16:33:24.698Z,15.88
2023-05-24T16:35:56.154Z,18.02
2023-05-24T16:38:26.769Z,19.73
2023-05-24T16:40:55.020Z,14.68
2023-05-24T16:43:23.227Z,16.48
2023-05-24T16:45:53.246Z,22.38
2023-05-24T16:48:27.995Z,14.60
2023-05-24T16:50:57.048Z,15.30
2023-05-24T16:53:27.140Z,14.05
2023-05-24T16:55:57.250Z,21.25
2023-05-24T16:58:28.040Z,24.17
2023-05-24T17:00:56.626Z,14.30
2023-05-24T17:03:28.408Z,14.90
2023-05-24T17:06:03.263Z,12.45
2023-05-24T17:08:35.985Z,12.02
2023-05-24T17:11:04.654Z,20.90
2023-05-24T17:13:33.139Z,8.07
2023-05-24T17:16:01.617Z,12.30
2023-05-24T17:18:29.781Z,15.13
2023-05-24T17:20:59.018Z,8.68
2023-05-24T17:23:27.652Z,10.63
2023-05-24T17:25:57.365Z,14.57
2023-05-24T17:28:27.900Z,11.60
2023-05-24T17:30:56.379Z,13.95
2023-05-24T17:33:25.605Z,10.65
2023-05-24T17:35:56.451Z,17.65
2023-05-24T17:38:25.753Z,14.30
2023-05-24T17:40:56.941Z,14.15
2023-05-24T17:43:29.195Z,12.05
2023-05-24T17:46:03.200Z,13.00
2023-05-24T17:48:32.594Z,13.65
2023-05-24T17:51:01.825Z,11.70
2023-05-24T17:53:32.360Z,12.73
2023-05-24T17:56:00.809Z,17.02
2023-05-24T17:58:35.575Z,15.27
2023-05-24T18:01:05.244Z,12.15
2023-05-24T18:03:33.772Z,11.27
2023-05-24T18:06:03.897Z,14.13
2023-05-24T18:08:32.341Z,12.88
2023-05-24T18:11:03.566Z,10.68
2023-05-24T18:13:33.050Z,13.25
2023-05-24T18:16:02.260Z,11.13
2023-05-24T18:18:30.573Z,10.82
2023-05-24T18:20:58.641Z,11.52
2023-05-24T18:23:27.080Z,11.02
2023-05-24T18:26:00.306Z,10.60
2023-05-24T18:28:29.685Z,10.07
2023-05-24T18:33:48.283Z,11.15
2023-05-24T18:36:16.542Z,13.48
2023-05-24T18:38:47.418Z,16.38
2023-05-24T18:41:16.580Z,10.05
2023-05-24T18:43:44.975Z,14.75
2023-05-24T18:46:16.423Z,10.82
2023-05-24T18:48:44.954Z,13.48
2023-05-24T18:51:13.388Z,11.95
2023-05-24T18:53:41.513Z,13.65
2023-05-24T18:56:09.817Z,11.93
2023-05-24T18:58:38.005Z,13.07
2023-05-24T19:01:06.324Z,16.40
2023-05-24T19:03:35.843Z,12.23
2023-05-24T19:06:04.036Z,16.25
2023-05-24T19:08:32.118Z,12.48
2023-05-24T19:11:00.222Z,9.68
2023-05-24T19:13:28.619Z,19.40
2023-05-24T19:15:58.612Z,16.63
2023-05-24T19:18:27.079Z,15.07
2023-05-24T19:20:56.781Z,17.92
2023-05-24T19:23:25.048Z,14.20
2023-05-24T19:25:53.136Z,12.82
2023-05-24T19:28:21.542Z,14.93
2023-05-24T19:30:49.889Z,11.43
2023-05-24T19:33:18.007Z,11.27
2023-05-24T19:35:46.478Z,11.70
2023-05-24T19:38:17.671Z,15.18
2023-05-24T19:40:46.320Z,11.95
2023-05-24T19:43:14.416Z,16.95
2023-05-24T19:45:42.946Z,11.00
2023-05-24T19:48:11.255Z,10.68
2023-05-24T19:50:40.590Z,15.82
2023-05-24T19:53:09.098Z,14.43
2023-05-24T19:55:38.538Z,13.40
2023-05-24T19:58:06.901Z,10.93
2023-05-24T20:00:35.224Z,17.80
2023-05-24T20:03:03.463Z,19.52
2023-05-24T20:05:31.574Z,16.33
2023-05-24T20:07:59.927Z,11.20
2023-05-24T20:10:30.016Z,7.65
2023-05-24T20:12:59.784Z,13.05
2023-05-24T20:15:28.726Z,15.75
2023-05-24T20:17:57.038Z,13.02
2023-05-24T20:20:25.945Z,9.82
2023-05-24T20:22:54.168Z,12.57
2023-05-24T20:25:22.401Z,13.63
2023-05-24T20:27:50.501Z,10.88
2023-05-24T20:30:20.487Z,10.68
2023-05-24T20:32:48.704Z,12.07
2023-05-24T20:35:16.910Z,17.92
2023-05-24T20:37:45.280Z,16.30
2023-05-24T20:40:18.224Z,14.98
2023-05-24T20:42:46.577Z,12.65
2023-05-24T20:45:14.669Z,13.52
2023-05-24T20:47:44.452Z,14.15
2023-05-24T20:50:14.333Z,12.48
2023-05-24T20:52:42.727Z,14.60
2023-05-24T20:55:11.640Z,12.52
2023-05-24T20:57:40.468Z,19.05
2023-05-24T21:00:10.284Z,10.85
2023-05-24T21:02:39.888Z,13.10
2023-05-24T21:05:10.348Z,14.57
2023-05-24T21:07:38.697Z,11.50
2023-05-24T21:10:07.785Z,11.40
2023-05-24T21:12:36.162Z,12.45
2023-05-24T21:15:04.541Z,12.65
2023-05-24T21:17:32.823Z,11.48
2023-05-24T21:20:01.522Z,14.45
2023-05-24T21:22:31.000Z,16.13
2023-05-24T21:24:59.268Z,16.77
2023-05-24T21:27:27.437Z,17.30
2023-05-24T21:29:55.761Z,21.05
2023-05-24T21:32:23.936Z,11.45
2023-05-24T21:34:52.312Z,10.98
2023-05-24T21:37:20.530Z,12.07
2023-05-24T21:39:51.209Z,13.75
2023-05-24T21:42:19.637Z,15.40
2023-05-24T21:44:47.853Z,13.93
2023-05-24T21:47:16.031Z,11.38
2023-05-24T21:49:44.458Z,16.23
2023-05-24T21:52:12.554Z,13.70
2023-05-24T21:54:40.769Z,15.48
2023-05-24T21:57:10.249Z,17.23
2023-05-24T21:59:38.595Z,12.02
2023-05-24T22:02:06.823Z,15.50
2023-05-24T22:04:35.068Z,13.80
2023-05-24T22:07:03.183Z,23.08
2023-05-24T22:09:31.553Z,20.20
2023-05-24T22:11:59.688Z,15.82
2023-05-24T22:14:29.565Z,14.27
2023-05-24T22:16:59.543Z,12.52
2023-05-24T22:19:39.526Z,17.63
2023-05-24T22:22:08.732Z,18.13
2023-05-24T22:24:37.392Z,17.17
2023-05-24T22:27:09.516Z,18.30
2023-05-24T22:29:39.308Z,17.20
2023-05-24T22:32:07.535Z,10.88
2023-05-24T22:34:35.872Z,16.45
2023-05-24T22:37:04.316Z,19.02
2023-05-24T22:39:32.371Z,18.52
2023-05-24T22:42:01.724Z,17.02
2023-05-24T22:44:29.976Z,11.77
2023-05-24T22:47:01.837Z,14.75
2023-05-24T22:49:34.390Z,12.32
2023-05-24T22:52:02.924Z,14.05
2023-05-24T22:54:31.147Z,18.02
2023-05-24T22:56:59.236Z,21.42
2023-05-24T22:59:27.602Z,20.17
2023-05-24T23:01:55.722Z,15.10
2023-05-24T23:04:27.567Z,15.32
2023-05-24T23:06:56.607Z,16.10
2023-05-24T23:09:34.202Z,16.73
2023-05-24T23:12:02.757Z,20.10
2023-05-24T23:14:31.601Z,17.85
2023-05-24T23:17:02.525Z,21.42
2023-05-24T23:19:33.243Z,15.60
2023-05-24T23:22:03.393Z,16.25
2023-05-24T23:24:31.731Z,15.98
2023-05-24T23:27:00.120Z,11.75
2023-05-24T23:29:28.186Z,12.82
2023-05-24T23:31:56.591Z,15.00
2023-05-24T23:34:24.686Z,12.93
2023-05-24T23:36:54.445Z,15.32
2023-05-24T23:39:22.535Z,16.17
2023-05-24T23:41:50.871Z,11.77
2023-05-24T23:44:23.410Z,19.83
2023-05-24T23:46:52.149Z,19.38
2023-05-24T23:49:20.609Z,17.90
2023-05-24T23:51:48.960Z,12.07
2023-05-24T23:54:19.305Z,13.43
2023-05-24T23:56:48.769Z,14.95
2023-05-24T23:59:17.306Z,17.08
